Rina Amoretti — IBRR — position and weather

sailwx.info

Track history (hours):
 
Tides and Currents Weather Stations Pressure Air Temp Water Temp Dewpoint Dewpoint Depression Visibility Wind Speed Wind Dir Waves Ship Positions

Rina Amoretti

Last reported at 2016-Dec-07 09:23 UTC. Time now 2016-Dec-10 10:59 UTC.
Position N 37°23' E 015°20'.

Length 120 m; draft 6.6 m.

Type: Ship (hazmat cat A). MMSI: 247197000.

Date/timePositionNaut miles runAvg speedWind from/ knotsBaromVisibWave heightAir tempDewpointWater temp
2016-Dec-07 09:23N 37°23' E 015°20'1313.5
2016-Dec-07 08:27N 37°35' E 015°25'1213.3
2016-Dec-07 07:33N 37°46' E 015°28'1313.5
2016-Dec-07 06:33N 37°59' E 015°32'1413.8
2016-Dec-07 05:33N 38°13' E 015°36'8 7.8
2016-Dec-07 04:33N 38°20' E 015°32'1413.7
2016-Dec-07 03:33N 38°19' E 015°14'1413.6
2016-Dec-07 02:33N 38°17' E 014°57'1413.6
2016-Dec-07 01:33N 38°15' E 014°40'1313.2
2016-Dec-07 00:33N 38°14' E 014°23'4113.7
2016-Dec-06 21:33N 38°09' E 013°31'5 4.5
2016-Dec-06 20:30N 38°06' E 013°26'0 0.0
2016-Dec-06 18:33N 38°06' E 013°26'0 0.0
2016-Dec-06 17:33N 38°06' E 013°26'0 0.0
2016-Dec-06 16:33N 38°06' E 013°26'0 0.0
2016-Dec-06 15:33N 38°06' E 013°26'0 0.0
2016-Dec-06 14:33N 38°06' E 013°26'0 0.0
2016-Dec-06 13:33N 38°06' E 013°26'0 0.0
2016-Dec-06 12:33N 38°06' E 013°26'0 0.0
2016-Dec-06 11:33N 38°06' E 013°26'0 0.0
2016-Dec-06 10:33N 38°06' E 013°26'0 0.0
2016-Dec-06 09:33N 38°06' E 013°26'0 0.0
2016-Dec-06 08:33N 38°06' E 013°26'0 0.0
2016-Dec-06 07:33N 38°06' E 013°26'1 0.8
2016-Dec-06 06:33N 38°06' E 013°27'1 0.8
2016-Dec-06 05:31N 38°07' E 013°26'0 0.0
2016-Dec-06 04:31N 38°07' E 013°26'0 0.1
2016-Dec-06 03:31N 38°07' E 013°26'0 0.2
2016-Dec-06 02:33N 38°07' E 013°26'1010.4
2016-Dec-06 01:33N 38°10' E 013°39'2913.5
2016-Dec-05 23:24N 38°13' E 014°16'1213.7
2016-Dec-05 22:33N 38°14' E 014°30'1313.3
2016-Dec-05 21:33N 38°16' E 014°47'1313.1
2016-Dec-05 20:33N 38°17' E 015°04'1313.0
2016-Dec-05 19:34N 38°19' E 015°20'1312.7
2016-Dec-05 18:33N 38°19' E 015°36'8 8.3
2016-Dec-05 17:33N 38°11' E 015°37'1313.1
2016-Dec-05 16:33N 37°58' E 015°33'1313.2
2016-Dec-05 15:33N 37°45' E 015°29'1312.8
2016-Dec-05 14:33N 37°33' E 015°25'4 0.1
2016-Dec-04 09:26N 37°29' E 015°23'1213.1
2016-Dec-04 08:33N 37°41' E 015°26'1313.4
2016-Dec-04 07:33N 37°54' E 015°30'1313.4
2016-Dec-04 06:33N 38°07' E 015°34'1111.1
2016-Dec-04 05:33N 38°17' E 015°40'1211.8
2016-Dec-04 04:33N 38°19' E 015°25'1313.0
2016-Dec-04 03:33N 38°18' E 015°09'1313.0
2016-Dec-04 02:33N 38°16' E 014°52'1313.1
2016-Dec-04 01:33N 38°15' E 014°36'1412.9
2016-Dec-04 00:28N 38°13' E 014°18'1213.0
2016-Dec-03 23:33N 38°12' E 014°03'1312.8
2016-Dec-03 22:33N 38°11' E 013°47'1313.2
2016-Dec-03 21:33N 38°09' E 013°30'4 4.2
2016-Dec-03 20:33N 38°06' E 013°26'0 0.0
2016-Dec-03 19:33N 38°06' E 013°26'0 0.0
2016-Dec-03 18:33N 38°06' E 013°26'0 0.0
2016-Dec-03 17:33N 38°06' E 013°26'0 0.0
2016-Dec-03 16:33N 38°06' E 013°26'0 0.0
2016-Dec-03 15:33N 38°06' E 013°26'0 0.0
2016-Dec-03 14:33N 38°06' E 013°26'0 0.0
2016-Dec-03 13:33N 38°06' E 013°26'0 0.0
2016-Dec-03 12:33N 38°06' E 013°26'0 0.0
2016-Dec-03 11:33N 38°06' E 013°26'0 0.0
2016-Dec-03 10:33N 38°06' E 013°26'0 0.0
2016-Dec-03 09:33N 38°06' E 013°26'0 0.0
2016-Dec-03 08:33N 38°06' E 013°26'0 0.0
2016-Dec-03 07:33N 38°06' E 013°26'1 0.8
2016-Dec-03 06:31N 38°07' E 013°26'0 0.1
2016-Dec-03 05:31N 38°07' E 013°26'0 0.0
2016-Dec-03 04:31N 38°07' E 013°26'0 0.0
2016-Dec-03 03:31N 38°07' E 013°26'0 0.0
2016-Dec-03 02:31N 38°07' E 013°26'0 0.0
2016-Dec-03 01:31N 38°07' E 013°26'0 0.0
2016-Dec-03 00:31N 38°07' E 013°26'0 0.0
2016-Dec-02 23:34N 38°07' E 013°26'0 0.0
2016-Dec-02 22:34N 38°07' E 013°26'0 0.0
2016-Dec-02 21:33N 38°07' E 013°26'0 0.1
2016-Dec-02 20:33N 38°07' E 013°26'0 0.0
2016-Dec-02 19:33N 38°07' E 013°26'0 0.1
2016-Dec-02 18:33N 38°07' E 013°26'0 0.0
2016-Dec-02 17:33N 38°07' E 013°26'0 0.0
2016-Dec-02 16:33N 38°07' E 013°26'0 0.0
2016-Dec-02 15:33N 38°07' E 013°26'0 0.0
2016-Dec-02 14:33N 38°07' E 013°26'0 0.0
2016-Dec-02 13:33N 38°07' E 013°26'0 0.0
2016-Dec-02 12:33N 38°07' E 013°26'0 0.0
2016-Dec-02 11:33N 38°07' E 013°26'0 0.0
2016-Dec-02 10:33N 38°07' E 013°26'0 0.0
2016-Dec-02 09:33N 38°07' E 013°26'0 0.0
2016-Dec-02 08:33N 38°07' E 013°26'0 0.0
2016-Dec-02 07:33N 38°07' E 013°26'0 0.1
2016-Dec-02 06:33N 38°07' E 013°26'0 0.0
2016-Dec-02 05:33N 38°07' E 013°26'2 1.9
2016-Dec-02 04:33N 38°08' E 013°28'10 9.9
2016-Dec-02 03:33N 38°10' E 013°40'1211.8
2016-Dec-02 02:33N 38°12' E 013°55'1211.5
2016-Dec-02 01:29N 38°13' E 014°11'1111.4
2016-Dec-02 00:32N 38°14' E 014°25'1111.7
2016-Dec-01 23:33N 38°16' E 014°39'1211.6
2016-Dec-01 22:33N 38°16' E 014°54'1111.5
2016-Dec-01 21:34N 38°17' E 015°08'1312.6
2016-Dec-01 20:33N 38°19' E 015°24'1312.9
2016-Dec-01 19:33N 38°18' E 015°41'9 9.2
2016-Dec-01 18:33N 38°09' E 015°37'1312.6
2016-Dec-01 17:33N 37°57' E 015°32'1312.6
2016-Dec-01 16:33N 37°45' E 015°29'1212.2
2016-Dec-01 15:33N 37°33' E 015°24'  
2016-Nov-29 04:27N 37°20' E 015°20'1314.2
2016-Nov-29 03:33N 37°32' E 015°24'1413.9
2016-Nov-29 02:33N 37°46' E 015°28'1414.1
2016-Nov-29 01:33N 37°60' E 015°32'1414.4
2016-Nov-29 00:33N 38°13' E 015°36'1211.6
2016-Nov-28 23:34N 38°25' E 015°37'1413.8
2016-Nov-28 22:33N 38°38' E 015°30'1413.8
2016-Nov-28 21:33N 38°50' E 015°23'1413.7
2016-Nov-28 20:33N 39°02' E 015°14'8113.4
2016-Nov-28 14:31N 40°13' E 014°23'1313.6
2016-Nov-28 13:33N 40°25' E 014°15'1312.7
2016-Nov-28 12:34N 40°37' E 014°12'1313.2
2016-Nov-28 11:33N 40°50' E 014°18'1 0.5
2016-Nov-28 09:31N 40°50' E 014°17'0 0.0
2016-Nov-28 08:31N 40°50' E 014°17'0 0.0
2016-Nov-28 02:25N 40°50' E 014°17'0 0.0
2016-Nov-28 01:25N 40°50' E 014°17'0 0.0
2016-Nov-27 22:25N 40°50' E 014°17'0 0.0
2016-Nov-27 21:31N 40°50' E 014°17'  
Track history (hours):
 
Tides and Currents Weather Stations Pressure Air Temp Water Temp Dewpoint Dewpoint Depression Visibility Wind Speed Wind Dir Waves Ship Positions

Rina Amoretti

Last reported at 2016-Dec-07 09:23 UTC. Time now 2016-Dec-10 10:59 UTC.
Position N 37°23' E 015°20'.

Length 120 m; draft 6.6 m.

Type: Ship (hazmat cat A). MMSI: 247197000.

Date/timePositionNaut miles runAvg speedWind from/ knotsBaromVisibWave heightAir tempDewpointWater temp
2016-Dec-07 09:23N 37°23' E 015°20'1313.5
2016-Dec-07 08:27N 37°35' E 015°25'1213.3
2016-Dec-07 07:33N 37°46' E 015°28'1313.5
2016-Dec-07 06:33N 37°59' E 015°32'1413.8
2016-Dec-07 05:33N 38°13' E 015°36'8 7.8
2016-Dec-07 04:33N 38°20' E 015°32'1413.7
2016-Dec-07 03:33N 38°19' E 015°14'1413.6
2016-Dec-07 02:33N 38°17' E 014°57'1413.6
2016-Dec-07 01:33N 38°15' E 014°40'1313.2
2016-Dec-07 00:33N 38°14' E 014°23'4113.7
2016-Dec-06 21:33N 38°09' E 013°31'5 4.5
2016-Dec-06 20:30N 38°06' E 013°26'0 0.0
2016-Dec-06 18:33N 38°06' E 013°26'0 0.0
2016-Dec-06 17:33N 38°06' E 013°26'0 0.0
2016-Dec-06 16:33N 38°06' E 013°26'0 0.0
2016-Dec-06 15:33N 38°06' E 013°26'0 0.0
2016-Dec-06 14:33N 38°06' E 013°26'0 0.0
2016-Dec-06 13:33N 38°06' E 013°26'0 0.0
2016-Dec-06 12:33N 38°06' E 013°26'0 0.0
2016-Dec-06 11:33N 38°06' E 013°26'0 0.0
2016-Dec-06 10:33N 38°06' E 013°26'0 0.0
2016-Dec-06 09:33N 38°06' E 013°26'0 0.0
2016-Dec-06 08:33N 38°06' E 013°26'0 0.0
2016-Dec-06 07:33N 38°06' E 013°26'1 0.8
2016-Dec-06 06:33N 38°06' E 013°27'1 0.8
2016-Dec-06 05:31N 38°07' E 013°26'0 0.0
2016-Dec-06 04:31N 38°07' E 013°26'0 0.1
2016-Dec-06 03:31N 38°07' E 013°26'0 0.2
2016-Dec-06 02:33N 38°07' E 013°26'1010.4
2016-Dec-06 01:33N 38°10' E 013°39'2913.5
2016-Dec-05 23:24N 38°13' E 014°16'1213.7
2016-Dec-05 22:33N 38°14' E 014°30'1313.3
2016-Dec-05 21:33N 38°16' E 014°47'1313.1
2016-Dec-05 20:33N 38°17' E 015°04'1313.0
2016-Dec-05 19:34N 38°19' E 015°20'1312.7
2016-Dec-05 18:33N 38°19' E 015°36'8 8.3
2016-Dec-05 17:33N 38°11' E 015°37'1313.1
2016-Dec-05 16:33N 37°58' E 015°33'1313.2
2016-Dec-05 15:33N 37°45' E 015°29'1312.8
2016-Dec-05 14:33N 37°33' E 015°25'4 0.1
2016-Dec-04 09:26N 37°29' E 015°23'1213.1
2016-Dec-04 08:33N 37°41' E 015°26'1313.4
2016-Dec-04 07:33N 37°54' E 015°30'1313.4
2016-Dec-04 06:33N 38°07' E 015°34'1111.1
2016-Dec-04 05:33N 38°17' E 015°40'1211.8
2016-Dec-04 04:33N 38°19' E 015°25'1313.0
2016-Dec-04 03:33N 38°18' E 015°09'1313.0
2016-Dec-04 02:33N 38°16' E 014°52'1313.1
2016-Dec-04 01:33N 38°15' E 014°36'1412.9
2016-Dec-04 00:28N 38°13' E 014°18'1213.0
2016-Dec-03 23:33N 38°12' E 014°03'1312.8
2016-Dec-03 22:33N 38°11' E 013°47'1313.2
2016-Dec-03 21:33N 38°09' E 013°30'4 4.2
2016-Dec-03 20:33N 38°06' E 013°26'0 0.0
2016-Dec-03 19:33N 38°06' E 013°26'0 0.0
2016-Dec-03 18:33N 38°06' E 013°26'0 0.0
2016-Dec-03 17:33N 38°06' E 013°26'0 0.0
2016-Dec-03 16:33N 38°06' E 013°26'0 0.0
2016-Dec-03 15:33N 38°06' E 013°26'0 0.0
2016-Dec-03 14:33N 38°06' E 013°26'0 0.0
2016-Dec-03 13:33N 38°06' E 013°26'0 0.0
2016-Dec-03 12:33N 38°06' E 013°26'0 0.0
2016-Dec-03 11:33N 38°06' E 013°26'0 0.0
2016-Dec-03 10:33N 38°06' E 013°26'0 0.0
2016-Dec-03 09:33N 38°06' E 013°26'0 0.0
2016-Dec-03 08:33N 38°06' E 013°26'0 0.0
2016-Dec-03 07:33N 38°06' E 013°26'1 0.8
2016-Dec-03 06:31N 38°07' E 013°26'0 0.1
2016-Dec-03 05:31N 38°07' E 013°26'0 0.0
2016-Dec-03 04:31N 38°07' E 013°26'0 0.0
2016-Dec-03 03:31N 38°07' E 013°26'0 0.0
2016-Dec-03 02:31N 38°07' E 013°26'0 0.0
2016-Dec-03 01:31N 38°07' E 013°26'0 0.0
2016-Dec-03 00:31N 38°07' E 013°26'0 0.0
2016-Dec-02 23:34N 38°07' E 013°26'0 0.0
2016-Dec-02 22:34N 38°07' E 013°26'0 0.0
2016-Dec-02 21:33N 38°07' E 013°26'0 0.1
2016-Dec-02 20:33N 38°07' E 013°26'0 0.0
2016-Dec-02 19:33N 38°07' E 013°26'0 0.1
2016-Dec-02 18:33N 38°07' E 013°26'0 0.0
2016-Dec-02 17:33N 38°07' E 013°26'0 0.0
2016-Dec-02 16:33N 38°07' E 013°26'0 0.0
2016-Dec-02 15:33N 38°07' E 013°26'0 0.0
2016-Dec-02 14:33N 38°07' E 013°26'0 0.0
2016-Dec-02 13:33N 38°07' E 013°26'0 0.0
2016-Dec-02 12:33N 38°07' E 013°26'0 0.0
2016-Dec-02 11:33N 38°07' E 013°26'0 0.0
2016-Dec-02 10:33N 38°07' E 013°26'0 0.0
2016-Dec-02 09:33N 38°07' E 013°26'0 0.0
2016-Dec-02 08:33N 38°07' E 013°26'0 0.0
2016-Dec-02 07:33N 38°07' E 013°26'0 0.1
2016-Dec-02 06:33N 38°07' E 013°26'0 0.0
2016-Dec-02 05:33N 38°07' E 013°26'2 1.9
2016-Dec-02 04:33N 38°08' E 013°28'10 9.9
2016-Dec-02 03:33N 38°10' E 013°40'1211.8
2016-Dec-02 02:33N 38°12' E 013°55'1211.5
2016-Dec-02 01:29N 38°13' E 014°11'1111.4
2016-Dec-02 00:32N 38°14' E 014°25'1111.7
2016-Dec-01 23:33N 38°16' E 014°39'1211.6
2016-Dec-01 22:33N 38°16' E 014°54'1111.5
2016-Dec-01 21:34N 38°17' E 015°08'1312.6
2016-Dec-01 20:33N 38°19' E 015°24'1312.9
2016-Dec-01 19:33N 38°18' E 015°41'9 9.2
2016-Dec-01 18:33N 38°09' E 015°37'1312.6
2016-Dec-01 17:33N 37°57' E 015°32'1312.6
2016-Dec-01 16:33N 37°45' E 015°29'1212.2
2016-Dec-01 15:33N 37°33' E 015°24'  
2016-Nov-29 04:27N 37°20' E 015°20'1314.2
2016-Nov-29 03:33N 37°32' E 015°24'1413.9
2016-Nov-29 02:33N 37°46' E 015°28'1414.1
2016-Nov-29 01:33N 37°60' E 015°32'1414.4
2016-Nov-29 00:33N 38°13' E 015°36'1211.6
2016-Nov-28 23:34N 38°25' E 015°37'1413.8
2016-Nov-28 22:33N 38°38' E 015°30'1413.8
2016-Nov-28 21:33N 38°50' E 015°23'1413.7
2016-Nov-28 20:33N 39°02' E 015°14'8113.4
2016-Nov-28 14:31N 40°13' E 014°23'1313.6
2016-Nov-28 13:33N 40°25' E 014°15'1312.7
2016-Nov-28 12:34N 40°37' E 014°12'1313.2
2016-Nov-28 11:33N 40°50' E 014°18'1 0.5
2016-Nov-28 09:31N 40°50' E 014°17'0 0.0
2016-Nov-28 08:31N 40°50' E 014°17'0 0.0
2016-Nov-28 02:25N 40°50' E 014°17'0 0.0
2016-Nov-28 01:25N 40°50' E 014°17'0 0.0
2016-Nov-27 22:25N 40°50' E 014°17'0 0.0
2016-Nov-27 21:31N 40°50' E 014°17'  

Dump ship's entire track history